Alfred, New York
Current Conditions -  °F | °C
As of 1:56 AM on Monday 24 Nov 2014 (Local Time) from KELZ Reporting Station
Moderate Rain Moderate Rain  
Wind Chill: 39°   Ceiling: 1000
Heat Index: 47°   Visibility: 9mi
Dew Point: 44°   Wind: 22mph
Humidity: 90%   Direction: 150°SSE
Pressure: 29.52"   Gusts: 32mph
Location:  42.25°N, 77.79°W
Report Text: KELZ 240656Z AUTO 15019G28KT 9SM RA OVC010 08/07 A2952 RMK AO2 PK WND 16029/0621 PRESFR SLP001 P0007 T00830067
Loading
Personal Weather Stations






























Interactive Weather Map New forecast layout! Learn more

10-Day Weather Forecast

Advertisements
Track Severe Weather on mobile